createdAt,value
2023-01-09T00:01:42.249Z,4.40
2023-01-09T00:04:10.174Z,4.40
2023-01-09T00:09:07.119Z,4.40
2023-01-09T00:11:34.393Z,4.40
2023-01-09T00:18:56.596Z,4.40
2023-01-09T00:23:54.445Z,4.40
2023-01-09T00:28:52.595Z,4.50
2023-01-09T00:34:10.304Z,4.40
2023-01-09T00:36:37.529Z,4.40
2023-01-09T00:39:06.034Z,4.40
2023-01-09T00:41:42.103Z,4.40
2023-01-09T00:44:29.113Z,4.50
2023-01-09T00:47:07.683Z,4.50
2023-01-09T00:49:37.056Z,4.50
2023-01-09T00:52:09.861Z,4.40
2023-01-09T00:54:39.096Z,4.30
2023-01-09T00:57:07.230Z,4.30
2023-01-09T01:02:01.942Z,4.30
2023-01-09T01:04:47.730Z,4.30
2023-01-09T01:10:00.867Z,4.40
2023-01-09T01:12:27.855Z,4.40
2023-01-09T01:17:22.548Z,4.40
2023-01-09T01:19:49.711Z,4.40
2023-01-09T01:24:44.107Z,4.40
2023-01-09T01:34:33.515Z,4.40
2023-01-09T01:37:00.492Z,4.30
2023-01-09T01:41:54.865Z,4.30
2023-01-09T01:45:05.654Z,4.30
2023-01-09T01:47:57.267Z,4.30
2023-01-09T01:50:39.856Z,4.20
2023-01-09T01:53:33.339Z,4.20
2023-01-09T01:56:19.622Z,4.20
2023-01-09T01:59:08.158Z,4.20
2023-01-09T02:04:09.396Z,4.20
2023-01-09T02:06:38.076Z,4.20
2023-01-09T02:09:07.173Z,4.20
2023-01-09T02:11:35.167Z,4.10
2023-01-09T02:14:03.110Z,4.10
2023-01-09T02:16:53.457Z,4.10
2023-01-09T02:19:54.658Z,4.10
2023-01-09T02:23:21.611Z,4.10
2023-01-09T02:26:53.041Z,4.20
2023-01-09T02:29:59.425Z,4.20
2023-01-09T02:33:22.066Z,4.30
2023-01-09T02:36:17.176Z,4.30
2023-01-09T02:39:44.566Z,4.20
2023-01-09T02:42:21.357Z,4.20
2023-01-09T02:44:49.085Z,4.20
2023-01-09T02:47:15.881Z,4.20
2023-01-09T02:49:58.729Z,4.20
2023-01-09T02:56:09.688Z,4.20
2023-01-09T03:02:06.645Z,4.20
2023-01-09T03:04:36.546Z,4.20
2023-01-09T03:07:21.477Z,4.10
2023-01-09T03:09:53.666Z,4.10
2023-01-09T03:12:27.566Z,4.10
2023-01-09T03:15:00.583Z,4.10
2023-01-09T03:17:42.286Z,4.10
2023-01-09T03:20:14.687Z,4.10
2023-01-09T03:22:57.097Z,4.00
2023-01-09T03:25:28.234Z,4.00
2023-01-09T03:28:06.735Z,4.00
2023-01-09T03:30:36.552Z,3.90
2023-01-09T03:33:03.829Z,3.90
2023-01-09T03:35:30.850Z,3.80
2023-01-09T03:40:26.122Z,3.70
2023-01-09T03:47:48.044Z,3.70
2023-01-09T03:50:15.780Z,3.70
2023-01-09T03:55:10.230Z,3.70
2023-01-09T03:57:37.256Z,3.70
2023-01-09T04:00:05.778Z,3.70
2023-01-09T04:05:08.002Z,3.80
2023-01-09T04:10:02.888Z,3.80
2023-01-09T04:12:30.003Z,3.80
2023-01-09T04:17:24.572Z,3.70
2023-01-09T04:27:13.819Z,3.80
2023-01-09T04:32:08.357Z,3.80
2023-01-09T04:34:35.395Z,3.80
2023-01-09T04:37:02.347Z,3.90
2023-01-09T04:39:29.370Z,3.90
2023-01-09T04:41:56.332Z,3.90
2023-01-09T04:44:28.273Z,4.00
2023-01-09T04:46:58.827Z,4.00
2023-01-09T04:49:26.132Z,4.00
2023-01-09T04:54:21.447Z,4.10
2023-01-09T04:59:16.438Z,4.10
2023-01-09T05:01:43.581Z,4.20
2023-01-09T05:06:38.726Z,4.40
2023-01-09T05:11:33.147Z,4.40
2023-01-09T05:21:24.843Z,4.40
2023-01-09T05:26:24.687Z,4.50
2023-01-09T05:31:27.249Z,4.60
2023-01-09T05:33:55.742Z,4.60
2023-01-09T05:36:22.790Z,4.60
2023-01-09T05:38:49.760Z,4.70
2023-01-09T05:41:16.810Z,4.70
2023-01-09T05:43:43.807Z,4.70
2023-01-09T05:46:10.869Z,4.60
2023-01-09T05:51:05.850Z,4.70
2023-01-09T05:53:32.813Z,4.70
2023-01-09T05:58:27.461Z,5.00
2023-01-09T06:10:47.579Z,5.70
2023-01-09T06:13:14.923Z,5.80
2023-01-09T06:15:42.301Z,5.90
2023-01-09T06:18:09.418Z,6.00
2023-01-09T06:25:31.428Z,6.10
2023-01-09T06:30:25.783Z,6.20
2023-01-09T06:35:20.688Z,6.30
2023-01-09T06:37:49.631Z,6.30
2023-01-09T06:40:20.053Z,6.30
2023-01-09T06:42:49.221Z,6.40
2023-01-09T06:50:12.508Z,6.40
2023-01-09T06:52:40.104Z,6.40
2023-01-09T06:55:08.690Z,6.40
2023-01-09T07:00:04.775Z,6.40
2023-01-09T07:12:21.491Z,6.20
2023-01-09T07:19:43.297Z,6.20
2023-01-09T07:22:11.223Z,6.10
2023-01-09T07:27:06.021Z,6.00
2023-01-09T07:34:27.935Z,5.90
2023-01-09T07:36:54.962Z,5.80
2023-01-09T07:41:49.580Z,5.80
2023-01-09T07:44:17.139Z,5.80
2023-01-09T07:46:44.133Z,8.50
2023-01-09T07:49:11.096Z,5.80
2023-01-09T07:54:12.463Z,5.90
2023-01-09T07:56:40.829Z,5.90
2023-01-09T07:59:07.910Z,5.90
2023-01-09T08:04:02.515Z,5.80
2023-01-09T08:08:59.229Z,5.80
2023-01-09T08:18:48.771Z,5.80
2023-01-09T08:21:15.837Z,5.80
2023-01-09T08:26:12.512Z,5.80
2023-01-09T08:31:07.109Z,5.80
2023-01-09T08:33:34.123Z,5.80
2023-01-09T08:43:42.229Z,5.90
2023-01-09T08:46:39.632Z,5.80
2023-01-09T08:49:06.658Z,5.90
2023-01-09T08:54:01.017Z,5.90
2023-01-09T09:06:09.627Z,6.00
2023-01-09T09:11:04.153Z,6.10
2023-01-09T09:18:26.142Z,6.10
2023-01-09T09:23:20.606Z,6.10
2023-01-09T09:25:47.560Z,6.10
2023-01-09T09:30:42.617Z,6.20
2023-01-09T09:33:09.653Z,6.20
2023-01-09T09:35:37.716Z,6.20
2023-01-09T09:38:06.183Z,6.10
2023-01-09T09:41:34.099Z,6.10
2023-01-09T09:44:53.757Z,6.10
2023-01-09T09:48:32.530Z,6.20
2023-01-09T09:51:48.381Z,6.20
2023-01-09T09:54:27.386Z,6.20
2023-01-09T09:56:59.743Z,6.10
2023-01-09T09:59:33.507Z,6.10
2023-01-09T10:02:09.773Z,6.10
2023-01-09T10:04:49.974Z,6.10
2023-01-09T10:07:33.417Z,6.10
2023-01-09T10:10:11.093Z,6.10
2023-01-09T10:12:52.846Z,6.10
2023-01-09T10:15:33.399Z,6.10
2023-01-09T10:18:55.781Z,6.20
2023-01-09T10:22:26.699Z,6.30
2023-01-09T10:25:22.940Z,6.30
2023-01-09T10:28:34.074Z,6.30
2023-01-09T10:31:31.757Z,6.30
2023-01-09T10:35:03.142Z,6.30
2023-01-09T10:37:38.101Z,6.30
2023-01-09T10:40:35.761Z,6.40
2023-01-09T10:46:00.066Z,6.40
2023-01-09T10:48:38.199Z,6.30
2023-01-09T10:51:22.441Z,6.30
2023-01-09T10:53:54.287Z,6.00
2023-01-09T10:56:34.386Z,6.20
2023-01-09T10:59:01.873Z,6.20
2023-01-09T11:01:38.178Z,6.30
2023-01-09T11:04:29.508Z,6.40
2023-01-09T11:07:07.765Z,6.40
2023-01-09T11:10:01.817Z,6.40
2023-01-09T11:12:33.159Z,6.40
2023-01-09T11:15:31.019Z,6.40
2023-01-09T11:18:20.761Z,6.40
2023-01-09T11:20:47.997Z,6.40
2023-01-09T11:23:32.245Z,6.40
2023-01-09T11:26:02.777Z,6.40
2023-01-09T11:31:02.744Z,6.50
2023-01-09T11:33:37.223Z,6.40
2023-01-09T11:36:10.819Z,6.50
2023-01-09T11:38:55.632Z,6.50
2023-01-09T11:41:34.330Z,6.50
2023-01-09T11:44:04.684Z,6.50
2023-01-09T11:46:43.709Z,6.50
2023-01-09T11:49:22.811Z,6.50
2023-01-09T11:52:22.203Z,6.50
2023-01-09T11:55:07.231Z,6.50
2023-01-09T11:57:34.529Z,6.40
2023-01-09T12:00:32.974Z,6.40
2023-01-09T12:04:08.363Z,6.50
2023-01-09T12:07:09.197Z,6.50
2023-01-09T12:10:13.095Z,6.50
2023-01-09T12:13:13.498Z,6.50
2023-01-09T12:16:21.618Z,6.40
2023-01-09T12:19:37.841Z,6.40
2023-01-09T12:22:44.938Z,6.40
2023-01-09T12:25:56.862Z,6.40
2023-01-09T12:29:21.359Z,6.30
2023-01-09T12:32:38.085Z,6.30
2023-01-09T12:35:33.924Z,6.30
2023-01-09T12:38:41.896Z,6.30
2023-01-09T12:41:47.164Z,6.30
2023-01-09T12:44:55.257Z,6.30
2023-01-09T12:47:49.070Z,6.30
2023-01-09T12:51:06.334Z,6.30
2023-01-09T12:53:47.062Z,6.40
2023-01-09T12:56:29.072Z,6.40
2023-01-09T13:02:25.258Z,6.40
2023-01-09T13:05:18.285Z,6.50
2023-01-09T13:07:59.929Z,6.60
2023-01-09T13:10:41.867Z,6.70
2023-01-09T13:13:47.436Z,6.80
2023-01-09T13:16:42.712Z,7.00
2023-01-09T13:19:39.454Z,7.20
2023-01-09T13:22:07.833Z,7.50
2023-01-09T13:25:17.218Z,7.80
2023-01-09T13:27:59.140Z,7.90
2023-01-09T13:31:04.506Z,8.10
2023-01-09T13:33:38.180Z,8.10
2023-01-09T13:36:06.348Z,7.90
2023-01-09T13:38:38.063Z,7.90
2023-01-09T13:44:28.693Z,7.50
2023-01-09T13:47:01.009Z,7.60
2023-01-09T13:49:42.859Z,7.30
2023-01-09T13:52:39.318Z,7.30
2023-01-09T13:55:14.592Z,7.30
2023-01-09T13:58:03.793Z,7.40
2023-01-09T14:00:37.537Z,7.30
2023-01-09T14:03:34.385Z,7.20
2023-01-09T14:06:01.218Z,7.20
2023-01-09T14:08:31.464Z,7.00
2023-01-09T14:11:02.833Z,6.90
2023-01-09T14:13:44.811Z,6.80
2023-01-09T14:16:27.137Z,6.70
2023-01-09T14:19:16.385Z,6.70
2023-01-09T14:21:54.343Z,6.70
2023-01-09T14:24:43.432Z,6.70
2023-01-09T14:27:54.424Z,6.60
2023-01-09T14:30:27.067Z,6.60
2023-01-09T14:33:17.336Z,6.50
2023-01-09T14:36:16.621Z,6.50
2023-01-09T14:39:01.516Z,6.40
2023-01-09T14:41:57.715Z,6.30
2023-01-09T14:45:04.175Z,6.30
2023-01-09T14:47:31.100Z,6.20
2023-01-09T14:50:34.658Z,6.20
2023-01-09T14:53:28.639Z,6.20
2023-01-09T14:56:06.100Z,6.20
2023-01-09T14:58:36.041Z,6.00
2023-01-09T15:01:15.087Z,6.00
2023-01-09T15:03:51.983Z,5.90
2023-01-09T15:06:27.827Z,5.90
2023-01-09T15:09:24.445Z,6.00
2023-01-09T15:11:55.069Z,6.00
2023-01-09T15:14:56.029Z,6.00
2023-01-09T15:17:31.675Z,6.00
2023-01-09T15:20:05.658Z,6.00
2023-01-09T15:22:37.908Z,6.00
2023-01-09T15:25:44.958Z,6.00
2023-01-09T15:28:30.567Z,6.00
2023-01-09T15:31:12.472Z,6.00
2023-01-09T15:33:41.428Z,6.00
2023-01-09T15:36:26.302Z,5.90
2023-01-09T15:38:54.623Z,5.80
2023-01-09T15:41:47.986Z,5.80
2023-01-09T15:44:23.902Z,5.70
2023-01-09T15:46:51.737Z,5.60
2023-01-09T15:49:20.206Z,5.30
2023-01-09T15:51:49.153Z,5.20
2023-01-09T15:54:30.181Z,5.00
2023-01-09T15:57:24.944Z,4.90
2023-01-09T15:59:53.826Z,4.80
2023-01-09T16:02:42.065Z,4.80
2023-01-09T16:05:18.559Z,4.70
2023-01-09T16:07:49.531Z,4.70
2023-01-09T16:10:35.864Z,4.60
2023-01-09T16:15:35.003Z,4.60
2023-01-09T16:18:15.230Z,4.50
2023-01-09T16:20:42.912Z,4.50
2023-01-09T16:23:33.691Z,4.50
2023-01-09T16:26:29.714Z,4.50
2023-01-09T16:29:36.251Z,4.50
2023-01-09T16:32:06.531Z,4.60
2023-01-09T16:34:41.426Z,4.50
2023-01-09T16:37:13.103Z,4.60
2023-01-09T16:39:40.140Z,4.50
2023-01-09T16:42:28.938Z,4.60
2023-01-09T16:49:51.020Z,4.70
2023-01-09T16:57:18.773Z,4.70
2023-01-09T17:02:20.804Z,4.70
2023-01-09T17:04:48.054Z,4.70
2023-01-09T17:07:17.479Z,4.70
2023-01-09T17:09:46.088Z,4.70
2023-01-09T17:12:20.969Z,4.70
2023-01-09T17:14:49.069Z,4.70
2023-01-09T17:17:22.656Z,4.60
2023-01-09T17:19:49.675Z,4.70
2023-01-09T17:27:55.260Z,4.70
2023-01-09T17:30:22.682Z,4.70
2023-01-09T17:32:49.649Z,4.60
2023-01-09T17:37:44.984Z,4.60
2023-01-09T17:40:24.884Z,4.60
2023-01-09T17:47:46.823Z,4.50
2023-01-09T17:50:21.018Z,4.50
2023-01-09T17:52:51.092Z,4.50
2023-01-09T17:55:18.120Z,4.50
2023-01-09T17:57:45.129Z,4.50
2023-01-09T18:00:28.964Z,4.50
2023-01-09T18:02:57.250Z,4.50
2023-01-09T18:05:27.424Z,4.50
2023-01-09T18:07:55.069Z,4.50
2023-01-09T18:10:27.156Z,2.00
2023-01-09T18:12:56.620Z,4.50
2023-01-09T18:15:24.392Z,4.50
2023-01-09T18:17:52.447Z,4.40
2023-01-09T18:20:19.729Z,4.40
2023-01-09T18:22:47.514Z,4.40
2023-01-09T18:30:10.908Z,4.40
2023-01-09T18:32:39.246Z,4.40
2023-01-09T18:37:38.928Z,4.20
2023-01-09T18:40:07.845Z,4.20
2023-01-09T18:45:02.241Z,4.20
2023-01-09T18:52:24.581Z,4.30
2023-01-09T18:54:51.607Z,4.30
2023-01-09T19:02:24.417Z,4.30
2023-01-09T19:04:52.098Z,4.30
2023-01-09T19:09:46.902Z,4.20
2023-01-09T19:17:08.819Z,4.20
2023-01-09T19:19:35.843Z,4.20
2023-01-09T19:22:02.818Z,4.20
2023-01-09T19:27:00.114Z,4.20
2023-01-09T19:29:27.795Z,4.20
2023-01-09T19:39:19.084Z,4.30
2023-01-09T19:44:13.643Z,4.30
2023-01-09T19:56:35.501Z,3.80
2023-01-09T19:59:05.093Z,3.80
2023-01-09T20:01:37.659Z,3.70
2023-01-09T20:04:13.495Z,3.60
2023-01-09T20:06:47.974Z,3.60
2023-01-09T20:09:19.269Z,3.50
2023-01-09T20:14:16.547Z,3.50
2023-01-09T20:16:44.234Z,3.60
2023-01-09T20:19:14.076Z,3.60
2023-01-09T20:21:42.476Z,4.70
2023-01-09T20:24:16.791Z,3.90
2023-01-09T20:26:46.133Z,3.90
2023-01-09T20:39:07.795Z,4.00
2023-01-09T20:41:34.891Z,4.00
2023-01-09T20:44:07.027Z,4.00
2023-01-09T20:46:42.159Z,4.00
2023-01-09T20:49:13.936Z,4.00
2023-01-09T20:51:51.814Z,4.10
2023-01-09T20:54:21.597Z,4.00
2023-01-09T20:56:48.927Z,4.10
2023-01-09T20:59:22.732Z,4.10
2023-01-09T21:01:51.003Z,4.20
2023-01-09T21:11:44.567Z,4.30
2023-01-09T21:16:39.385Z,4.30
2023-01-09T21:24:01.524Z,4.40
2023-01-09T21:26:30.405Z,4.40
2023-01-09T21:29:01.145Z,4.40
2023-01-09T21:31:34.452Z,4.40
2023-01-09T21:34:07.940Z,4.40
2023-01-09T21:36:36.314Z,4.40
2023-01-09T21:39:08.199Z,4.50
2023-01-09T21:41:54.371Z,4.40
2023-01-09T21:44:40.275Z,4.40
2023-01-09T21:52:07.340Z,4.30
2023-01-09T21:54:35.375Z,4.40
2023-01-09T21:57:03.886Z,4.40
2023-01-09T21:59:31.411Z,4.40
2023-01-09T22:01:59.737Z,4.40
2023-01-09T22:04:30.283Z,4.30
2023-01-09T22:11:52.701Z,4.30
2023-01-09T22:14:21.001Z,4.30
2023-01-09T22:19:19.588Z,4.30
2023-01-09T22:24:18.874Z,4.30
2023-01-09T22:29:15.855Z,4.30
2023-01-09T22:34:16.667Z,4.30
2023-01-09T22:36:45.997Z,4.30
2023-01-09T22:39:19.502Z,4.30
2023-01-09T22:41:54.327Z,4.30
2023-01-09T22:44:21.625Z,4.30
2023-01-09T22:51:43.587Z,4.30
2023-01-09T22:56:38.093Z,4.20
2023-01-09T23:11:49.427Z,4.20
2023-01-09T23:14:17.598Z,4.20
2023-01-09T23:16:44.646Z,4.10
2023-01-09T23:19:14.642Z,4.10
2023-01-09T23:21:44.028Z,4.10
2023-01-09T23:24:14.468Z,4.10
2023-01-09T23:29:12.306Z,4.10
2023-01-09T23:34:09.927Z,4.10
2023-01-09T23:36:36.991Z,4.00
2023-01-09T23:41:58.957Z,4.00
2023-01-09T23:49:21.617Z,4.00
2023-01-09T23:56:44.128Z,4.00
2023-01-09T23:59:14.471Z,4.00
